Time;durP1;ratioP1;P1;durP2;ratioP2;P2;SDS_P1;SDS_P2;PMS_P1;PMS_P2;Temp;Humidity;BMP_temperature;BMP_pressure;BME280_temperature;BME280_humidity;BME280_pressure;Samples;Min_cycle;Max_cycle;Signal;HPM_P1;HPM_P2
2022/08/24 00:00:21;;;;;;;8.63;1.70;;;22.90;99.90;;;;;;5059290;28;20037;-73
2022/08/24 00:02:48;;;;;;;4.35;1.60;;;22.90;99.90;;;;;;5055194;28;20029;-73
2022/08/24 00:05:15;;;;;;;2.42;1.70;;;22.90;99.90;;;;;;5054727;28;20048;-73
2022/08/24 00:07:41;;;;;;;9.57;2.00;;;22.40;99.90;;;;;;5054818;28;20116;-73
2022/08/24 00:10:09;;;;;;;3.25;1.80;;;21.80;99.90;;;;;;5055002;28;20040;-73
2022/08/24 00:12:35;;;;;;;5.13;1.73;;;21.90;99.90;;;;;;5054603;28;20048;-73
2022/08/24 00:15:02;;;;;;;2.72;1.48;;;22.20;99.90;;;;;;5053169;28;20040;-73
2022/08/24 00:17:28;;;;;;;5.57;1.80;;;22.30;99.90;;;;;;5053220;28;20104;-74
2022/08/24 00:19:53;;;;;;;2.70;1.50;;;22.60;99.90;;;;;;5054773;28;20171;-73
2022/08/24 00:22:19;;;;;;;3.60;1.70;;;22.60;99.90;;;;;;5054544;28;20031;-73
2022/08/24 00:24:45;;;;;;;3.70;2.08;;;22.60;99.90;;;;;;5054335;28;20033;-73
2022/08/24 00:27:11;;;;;;;4.47;2.08;;;22.70;99.90;;;;;;5054191;28;20083;-73
2022/08/24 00:29:38;;;;;;;8.07;2.10;;;22.70;99.90;;;;;;5054177;28;20052;-73
2022/08/24 00:32:04;;;;;;;9.80;2.50;;;22.50;99.90;;;;;;5053342;28;20029;-73
2022/08/24 00:34:31;;;;;;;4.63;2.40;;;22.30;99.90;;;;;;5054039;28;20063;-73
2022/08/24 00:36:57;;;;;;;8.52;2.75;;;22.40;99.90;;;;;;5052728;28;20385;-73
2022/08/24 00:39:23;;;;;;;5.53;2.03;;;22.60;99.90;;;;;;5069488;28;20044;-74
2022/08/24 00:41:50;;;;;;;8.15;2.80;;;22.60;99.90;;;;;;5054342;28;20032;-73
2022/08/24 00:44:18;;;;;;;3.58;2.25;;;22.60;99.90;;;;;;5053774;28;20091;-73
2022/08/24 00:46:56;;;;;;;5.47;2.83;;;22.60;99.90;;;;;;5052876;28;20055;-74
2022/08/24 00:49:37;;;;;;;6.78;2.78;;;22.30;99.90;;;;;;5052959;28;20064;-74
2022/08/24 00:52:32;;;;;;;9.00;3.38;;;22.00;99.90;;;;;;5057368;28;20025;-74
2022/08/24 00:55:09;;;;;;;5.50;2.80;;;22.40;99.90;;;;;;5038666;28;20047;-73
2022/08/24 00:57:39;;;;;;;4.82;2.80;;;22.70;99.90;;;;;;5040590;28;20091;-73
2022/08/24 01:00:26;;;;;;;7.35;2.50;;;22.50;99.90;;;;;;5067644;28;20021;-73
2022/08/24 01:02:57;;;;;;;5.03;3.00;;;22.20;99.90;;;;;;5053796;28;20476;-73
2022/08/24 01:05:23;;;;;;;7.90;2.92;;;22.30;99.90;;;;;;5052751;28;20111;-73
2022/08/24 01:07:49;;;;;;;9.18;3.38;;;22.50;99.90;;;;;;5052516;28;20489;-73
2022/08/24 01:10:27;;;;;;;8.23;3.53;;;22.40;99.90;;;;;;5052539;28;20068;-73
2022/08/24 01:12:57;;;;;;;5.55;2.95;;;22.60;99.90;;;;;;5055068;28;20480;-73
2022/08/24 01:15:23;;;;;;;7.25;3.05;;;22.70;99.90;;;;;;5053536;28;20098;-74
2022/08/24 01:20:34;;;;;;;4.60;3.08;;;22.80;99.90;;;;;;5053456;28;20103;-73
2022/08/24 01:23:12;;;;;;;6.43;3.58;;;22.40;99.90;;;;;;5052058;28;20021;-74
2022/08/24 01:25:42;;;;;;;10.35;3.53;;;22.30;99.90;;;;;;5052030;28;20033;-73
2022/08/24 01:28:13;;;;;;;4.72;3.10;;;22.40;99.90;;;;;;5068395;28;20025;-73
2022/08/24 01:30:40;;;;;;;6.35;3.13;;;22.40;99.90;;;;;;5053275;28;20061;-73
2022/08/24 01:33:08;;;;;;;8.93;3.75;;;22.40;99.90;;;;;;5053004;28;20071;-74
2022/08/24 01:35:37;;;;;;;3.40;2.80;;;22.50;99.90;;;;;;5053239;28;20032;-73
2022/08/24 01:38:07;;;;;;;5.50;3.35;;;22.30;99.90;;;;;;5051762;28;20492;-74
2022/08/24 01:40:45;;;;;;;13.03;3.37;;;22.30;99.90;;;;;;5051847;28;20104;-73
2022/08/24 01:43:13;;;;;;;8.95;3.33;;;22.50;99.90;;;;;;5051594;28;20036;-73
2022/08/24 01:45:40;;;;;;;5.00;3.30;;;22.60;99.90;;;;;;5051748;28;20436;-73
2022/08/24 01:48:06;;;;;;;7.00;3.05;;;22.40;99.90;;;;;;5052798;28;20029;-74
2022/08/24 01:50:32;;;;;;;9.00;3.17;;;22.30;99.90;;;;;;5053112;28;20119;-73
2022/08/24 01:53:01;;;;;;;7.97;3.67;;;21.70;99.90;;;;;;5053205;28;20024;-74
2022/08/24 01:55:27;;;;;;;12.15;3.38;;;21.50;99.90;;;;;;5052547;28;20029;-74
2022/08/24 01:57:53;;;;;;;9.50;3.25;;;21.60;99.90;;;;;;5052435;28;20481;-73
2022/08/24 02:00:20;;;;;;;7.10;3.35;;;21.60;99.90;;;;;;5051422;28;20021;-73
2022/08/24 02:02:46;;;;;;;7.50;2.95;;;21.60;99.90;;;;;;5051632;28;20025;-73
2022/08/24 02:05:15;;;;;;;9.55;2.92;;;21.30;99.90;;;;;;5051211;28;20017;-73
2022/08/24 02:07:44;;;;;;;9.05;3.10;;;21.50;99.90;;;;;;5051438;28;20017;-73
2022/08/24 02:10:13;;;;;;;8.52;3.35;;;21.30;99.90;;;;;;5050882;28;20112;-74
2022/08/24 02:12:42;;;;;;;6.15;3.03;;;21.40;99.90;;;;;;5051634;28;20078;-73
2022/08/24 02:15:09;;;;;;;10.68;3.47;;;21.10;99.90;;;;;;5051502;28;20025;-73
2022/08/24 02:17:36;;;;;;;9.82;3.47;;;20.90;99.90;;;;;;5051145;28;20060;-73
2022/08/24 02:20:04;;;;;;;10.40;4.03;;;21.00;99.90;;;;;;5051409;28;20079;-74
2022/08/24 02:22:30;;;;;;;9.52;3.38;;;21.20;99.90;;;;;;5051124;28;20121;-73
2022/08/24 02:24:56;;;;;;;10.95;3.35;;;21.10;99.90;;;;;;5067756;28;20441;-73
2022/08/24 02:27:22;;;;;;;8.63;2.90;;;20.90;99.90;;;;;;5067789;28;20481;-73
2022/08/24 02:29:48;;;;;;;6.78;2.70;;;21.00;99.90;;;;;;5051050;28;20021;-73
2022/08/24 02:32:14;;;;;;;11.18;3.45;;;21.00;99.90;;;;;;5052432;28;20028;-73
2022/08/24 02:34:42;;;;;;;11.63;3.40;;;21.30;99.90;;;;;;5051198;28;20389;-73
2022/08/24 02:37:09;;;;;;;16.05;4.15;;;21.40;99.90;;;;;;5051277;28;20413;-73
2022/08/24 02:39:35;;;;;;;8.40;3.67;;;21.40;99.90;;;;;;5050872;28;20477;-72
2022/08/24 02:42:05;;;;;;;7.32;3.72;;;21.60;99.90;;;;;;5067809;28;20025;-73
2022/08/24 02:44:31;;;;;;;7.40;3.67;;;21.80;99.90;;;;;;5052299;28;20029;-75
2022/08/24 02:46:59;;;;;;;8.60;3.90;;;21.80;99.90;;;;;;5051059;28;20028;-73
2022/08/24 02:49:27;;;;;;;7.82;3.88;;;21.90;99.90;;;;;;5052269;28;20017;-72
2022/08/24 02:51:53;;;;;;;7.32;3.65;;;21.90;99.90;;;;;;5050960;28;20513;-73
2022/08/24 02:54:20;;;;;;;6.38;4.10;;;21.70;99.90;;;;;;5067598;28;20029;-72
2022/08/24 02:56:49;;;;;;;4.75;3.65;;;21.60;99.90;;;;;;5067357;28;20040;-72
2022/08/24 02:59:16;;;;;;;5.55;3.75;;;21.40;99.90;;;;;;5067548;28;20546;-72
2022/08/24 03:01:43;;;;;;;7.45;3.80;;;21.40;99.90;;;;;;5050710;28;20455;-75
2022/08/24 03:04:09;;;;;;;7.35;3.40;;;21.70;99.90;;;;;;5051026;28;20475;-75
2022/08/24 03:06:36;;;;;;;9.80;3.38;;;21.40;99.90;;;;;;5050810;28;20045;-75
2022/08/24 03:09:02;;;;;;;6.10;3.78;;;21.10;99.90;;;;;;5050491;28;20024;-75
2022/08/24 03:11:28;;;;;;;6.45;3.80;;;20.80;99.90;;;;;;5050732;28;20027;-73
2022/08/24 03:13:55;;;;;;;6.30;3.90;;;20.80;99.90;;;;;;5067344;28;20111;-74
2022/08/24 03:16:21;;;;;;;7.50;3.97;;;20.60;99.90;;;;;;5050972;28;20054;-75
2022/08/24 03:18:48;;;;;;;6.25;3.92;;;20.70;99.90;;;;;;5050533;28;20069;-73
2022/08/24 03:21:15;;;;;;;5.55;4.47;;;20.50;99.90;;;;;;5051480;28;20387;-75
2022/08/24 03:23:43;;;;;;;10.95;4.70;;;20.50;99.90;;;;;;5053900;28;20025;-74
2022/08/24 03:26:11;;;;;;;8.63;3.90;;;20.70;99.90;;;;;;5054215;28;20028;-73
2022/08/24 03:28:36;;;;;;;6.88;4.53;;;21.00;99.90;;;;;;5054273;28;20048;-75
2022/08/24 03:31:03;;;;;;;7.32;4.57;;;20.90;99.90;;;;;;5054291;28;20147;-73
2022/08/24 03:33:29;;;;;;;7.28;4.80;;;20.60;99.90;;;;;;5070932;28;20111;-73
2022/08/24 03:35:55;;;;;;;9.82;5.15;;;20.50;99.90;;;;;;5070839;28;20033;-75
2022/08/24 03:38:22;;;;;;;7.10;5.05;;;20.90;99.90;;;;;;5070377;28;20123;-75
2022/08/24 03:40:48;;;;;;;10.32;5.22;;;21.10;99.90;;;;;;5055483;28;20045;-73
2022/08/24 03:46:01;;;;;;;10.77;5.30;;;20.70;99.90;;;;;;5054040;28;20033;-73
2022/08/24 03:48:29;;;;;;;8.40;4.85;;;20.60;99.90;;;;;;5053911;28;20051;-73
2022/08/24 03:50:56;;;;;;;5.18;4.50;;;20.40;99.90;;;;;;5070739;28;20366;-73
2022/08/24 03:53:23;;;;;;;6.72;4.85;;;20.20;99.90;;;;;;5053506;28;20060;-73
2022/08/24 03:55:49;;;;;;;7.35;4.53;;;20.20;99.90;;;;;;5037106;28;20021;-73
2022/08/24 03:58:16;;;;;;;9.05;5.00;;;20.50;99.90;;;;;;5070342;28;20067;-74
2022/08/24 04:00:43;;;;;;;6.93;4.47;;;20.80;99.90;;;;;;5070494;28;20032;-73
2022/08/24 04:03:12;;;;;;;8.25;4.13;;;21.00;99.90;;;;;;5053761;28;20056;-73
2022/08/24 04:05:39;;;;;;;9.27;4.40;;;21.00;99.90;;;;;;5053864;28;20111;-73
2022/08/24 04:08:05;;;;;;;7.65;4.47;;;20.70;99.90;;;;;;5052909;28;20103;-73
2022/08/24 04:10:34;;;;;;;10.98;4.13;;;20.60;99.90;;;;;;5053587;28;20031;-74
2022/08/24 04:13:01;;;;;;;7.22;3.88;;;20.50;99.90;;;;;;5053470;28;20033;-72
2022/08/24 04:15:27;;;;;;;7.57;3.85;;;20.80;99.90;;;;;;5053406;28;20469;-73
2022/08/24 04:17:54;;;;;;;7.05;4.00;;;20.70;99.90;;;;;;5053100;28;20037;-73
2022/08/24 04:20:22;;;;;;;5.53;3.67;;;20.60;99.90;;;;;;5053507;28;20060;-74
2022/08/24 04:22:50;;;;;;;8.73;4.30;;;20.70;99.90;;;;;;5054216;28;20021;-74
2022/08/24 04:25:16;;;;;;;6.43;4.50;;;21.00;99.90;;;;;;5053199;28;20058;-73
2022/08/24 04:27:42;;;;;;;6.72;4.25;;;20.90;99.90;;;;;;5054383;28;20025;-74
2022/08/24 04:30:09;;;;;;;6.78;4.95;;;20.60;99.90;;;;;;5053029;28;20020;-73
2022/08/24 04:32:52;;;;;;;6.38;4.63;;;20.60;99.90;;;;;;5069057;28;20063;-74
2022/08/24 04:35:18;;;;;;;8.10;4.35;;;20.60;99.90;;;;;;5052798;28;20474;-73
2022/08/24 04:37:44;;;;;;;8.00;4.60;;;20.60;99.90;;;;;;5052940;28;20497;-73
2022/08/24 04:40:10;;;;;;;8.30;4.68;;;20.50;99.90;;;;;;5052936;28;20527;-73
2022/08/24 04:42:42;;;;;;;9.73;5.10;;;20.60;99.90;;;;;;5052411;28;20036;-73
2022/08/24 04:45:08;;;;;;;10.15;4.63;;;20.80;99.90;;;;;;5052133;28;20025;-72
2022/08/24 04:47:34;;;;;;;6.70;4.97;;;20.90;99.90;;;;;;5053976;28;20470;-73
2022/08/24 04:50:00;;;;;;;9.45;5.53;;;20.70;99.90;;;;;;5052209;28;20055;-73
2022/08/24 04:52:27;;;;;;;13.88;5.40;;;20.60;99.90;;;;;;5052927;28;20024;-73
2022/08/24 04:54:53;;;;;;;9.45;4.90;;;20.70;99.90;;;;;;5052484;28;20104;-73
2022/08/24 04:57:22;;;;;;;9.57;4.70;;;20.80;99.90;;;;;;5052704;28;20039;-73
2022/08/24 04:59:48;;;;;;;9.07;5.40;;;20.90;99.90;;;;;;5052536;28;20033;-74
2022/08/24 05:02:14;;;;;;;14.85;5.80;;;21.10;99.90;;;;;;5053139;28;20378;-73
2022/08/24 05:04:39;;;;;;;9.10;5.00;;;21.10;99.90;;;;;;5052223;28;20028;-73
2022/08/24 05:07:06;;;;;;;9.25;5.78;;;21.20;99.90;;;;;;5069320;28;20024;-74
2022/08/24 05:09:32;;;;;;;9.63;5.15;;;21.10;99.90;;;;;;5069007;28;20025;-75
2022/08/24 05:12:00;;;;;;;9.00;4.47;;;21.00;99.90;;;;;;5052242;28;20029;-73
2022/08/24 05:14:30;;;;;;;14.75;5.50;;;21.10;99.90;;;;;;5052276;28;20033;-73
2022/08/24 05:16:55;;;;;;;16.23;5.90;;;21.30;99.90;;;;;;5052429;28;20522;-73
2022/08/24 05:19:22;;;;;;;29.33;7.35;;;20.90;99.90;;;;;;5051721;28;20041;-74
2022/08/24 05:21:48;;;;;;;24.25;6.10;;;21.00;99.90;;;;;;5052343;28;20028;-73
2022/08/24 05:24:15;;;;;;;21.05;6.18;;;21.20;99.90;;;;;;5052056;28;20032;-72
2022/08/24 05:26:40;;;;;;;34.30;7.45;;;21.20;99.90;;;;;;5052126;28;20594;-75
2022/08/24 05:29:07;;;;;;;13.15;7.25;;;21.20;99.90;;;;;;5052051;28;20393;-78
2022/08/24 05:31:43;;;;;;;20.95;7.80;;;21.40;99.90;;;;;;5052005;28;20025;-81
2022/08/24 05:34:10;;;;;;;20.15;9.40;;;21.80;99.90;;;;;;5051619;28;20029;-77
2022/08/24 05:36:37;;;;;;;17.80;9.48;;;21.90;99.90;;;;;;5047009;28;20083;-77
2022/08/24 05:39:11;;;;;;;18.15;9.30;;;21.90;99.90;;;;;;5060569;28;20033;-77
2022/08/24 05:41:41;;;;;;;19.52;9.68;;;21.90;99.90;;;;;;5066472;28;20025;-79
2022/08/24 05:44:14;;;;;;;14.10;9.30;;;22.00;99.90;;;;;;5066910;28;20021;-77
2022/08/24 05:46:41;;;;;;;17.42;10.00;;;21.90;99.90;;;;;;5082521;28;20013;-77
2022/08/24 05:49:08;;;;;;;19.67;8.70;;;21.90;99.90;;;;;;5050626;28;20033;-77
2022/08/24 05:51:35;;;;;;;15.27;8.73;;;21.80;99.90;;;;;;5051773;28;20067;-79
2022/08/24 05:54:05;;;;;;;13.70;8.95;;;21.90;99.90;;;;;;5067550;28;20021;-77
2022/08/24 05:56:56;;;;;;;12.32;8.55;;;22.10;99.90;;;;;;5064818;28;20021;-76
2022/08/24 05:59:22;;;;;;;17.38;9.05;;;21.90;99.90;;;;;;5064562;28;20055;-76
2022/08/24 06:01:49;;;;;;;15.30;9.80;;;22.10;99.90;;;;;;5048770;28;20043;-76
2022/08/24 06:04:17;;;;;;;14.38;8.73;;;22.00;99.90;;;;;;5050395;28;20055;-76
2022/08/24 06:06:43;;;;;;;13.68;9.20;;;22.20;99.90;;;;;;5047978;28;20028;-76
2022/08/24 06:09:10;;;;;;;16.17;9.45;;;22.30;99.90;;;;;;5050791;28;20017;-76
2022/08/24 06:11:38;;;;;;;16.00;9.80;;;22.60;99.90;;;;;;5050389;28;20139;-76
2022/08/24 06:14:13;;;;;;;25.25;10.57;;;22.90;99.90;;;;;;5067129;28;20021;-75
2022/08/24 06:17:07;;;;;;;14.15;9.38;;;22.90;99.90;;;;;;5050023;28;20037;-75
2022/08/24 06:19:34;;;;;;;20.25;10.50;;;23.10;99.90;;;;;;5050212;28;20036;-75
2022/08/24 06:22:01;;;;;;;26.60;10.85;;;23.30;99.90;;;;;;5050328;28;20052;-75
2022/08/24 06:27:22;;;;;;;20.60;11.55;;;23.80;99.90;;;;;;5063916;28;20449;-75
2022/08/24 06:29:56;;;;;;;18.98;11.80;;;23.70;99.90;;;;;;5049996;28;20091;-75
2022/08/24 06:32:42;;;;;;;16.38;11.68;;;23.40;99.90;;;;;;5051350;28;20032;-75
2022/08/24 06:35:09;;;;;;;17.50;11.30;;;23.00;99.90;;;;;;5050260;28;20388;-75
2022/08/24 06:37:35;;;;;;;19.17;11.93;;;23.00;99.90;;;;;;5049804;28;20021;-75
2022/08/24 06:40:01;;;;;;;18.75;11.55;;;23.50;99.90;;;;;;5051360;28;20052;-76
2022/08/24 06:42:30;;;;;;;24.13;15.10;;;23.70;99.90;;;;;;5050166;28;20025;-75
2022/08/24 06:44:58;;;;;;;16.58;13.20;;;23.60;99.90;;;;;;5048443;28;20075;-74
2022/08/24 06:47:24;;;;;;;29.25;13.45;;;23.60;99.90;;;;;;5039990;28;20120;-74
2022/08/24 06:49:58;;;;;;;19.45;11.60;;;23.70;99.90;;;;;;5076501;28;20025;-74
2022/08/24 06:52:26;;;;;;;18.70;12.87;;;23.60;99.90;;;;;;5074984;28;20029;-74
2022/08/24 06:54:52;;;;;;;30.73;13.20;;;23.70;99.90;;;;;;5053174;28;20082;-71
2022/08/24 06:57:18;;;;;;;15.65;10.77;;;23.90;99.90;;;;;;5057754;28;20046;-71
2022/08/24 06:59:44;;;;;;;20.92;13.05;;;24.10;99.90;;;;;;5070137;28;20464;-71
2022/08/24 07:02:14;;;;;;;18.73;13.00;;;24.10;99.90;;;;;;5053320;28;20055;-71
2022/08/24 07:04:41;;;;;;;18.77;11.60;;;24.10;99.90;;;;;;5053498;28;20079;-71
2022/08/24 07:07:25;;;;;;;22.42;13.15;;;23.90;99.90;;;;;;5055420;28;20060;-71
2022/08/24 07:09:52;;;;;;;18.67;13.30;;;24.10;99.90;;;;;;5070371;28;20025;-71
2022/08/24 07:12:18;;;;;;;24.48;13.35;;;23.70;99.90;;;;;;5037180;28;20123;-71
2022/08/24 07:14:44;;;;;;;20.73;13.27;;;23.50;99.90;;;;;;5053564;28;20548;-72
2022/08/24 07:17:10;;;;;;;17.83;13.85;;;23.60;99.90;;;;;;5053389;28;20029;-70
2022/08/24 07:19:37;;;;;;;25.73;13.65;;;23.80;99.90;;;;;;5066932;28;20132;-71
2022/08/24 07:22:04;;;;;;;29.58;14.15;;;23.90;99.90;;;;;;5056960;28;20075;-70
2022/08/24 07:24:31;;;;;;;22.17;13.55;;;24.40;99.90;;;;;;5069875;28;20124;-70
2022/08/24 07:26:57;;;;;;;25.67;13.68;;;24.70;99.90;;;;;;5051539;28;20112;-70
2022/08/24 07:29:23;;;;;;;26.55;14.43;;;25.00;99.90;;;;;;5052933;28;20031;-71
2022/08/24 07:31:48;;;;;;;30.10;14.82;;;25.10;99.90;;;;;;5054856;28;20025;-71
2022/08/24 07:34:36;;;;;;;28.92;13.88;;;25.30;99.90;;;;;;5069889;28;20052;-72
2022/08/24 07:37:02;;;;;;;29.63;14.38;;;25.60;99.90;;;;;;5053149;28;20033;-71
2022/08/24 07:39:29;;;;;;;21.63;12.68;;;25.60;99.90;;;;;;5052832;28;20036;-71
2022/08/24 07:41:56;;;;;;;28.05;14.20;;;25.70;99.90;;;;;;5054557;28;20369;-71
2022/08/24 07:44:22;;;;;;;17.40;12.13;;;25.80;99.90;;;;;;5069257;28;20033;-71
2022/08/24 07:46:48;;;;;;;15.13;10.65;;;26.00;99.90;;;;;;5053248;28;20387;-70
2022/08/24 07:49:14;;;;;;;14.98;8.18;;;26.20;99.90;;;;;;5069597;28;20123;-71
2022/08/24 07:51:40;;;;;;;15.45;9.40;;;25.90;99.90;;;;;;5065335;28;20041;-71
2022/08/24 07:54:07;;;;;;;17.40;8.70;;;25.20;99.90;;;;;;5057854;28;20026;-71
2022/08/24 07:56:41;;;;;;;13.77;8.50;;;24.60;99.90;;;;;;5056069;28;20484;-72
2022/08/24 07:59:08;;;;;;;18.23;9.20;;;25.00;99.90;;;;;;5056545;28;20051;-71
2022/08/24 08:01:34;;;;;;;18.35;7.28;;;25.80;99.90;;;;;;5052589;28;20025;-71
2022/08/24 08:04:00;;;;;;;15.57;7.70;;;26.20;99.90;;;;;;5052631;28;20045;-72
2022/08/24 08:06:26;;;;;;;15.63;8.77;;;26.50;99.90;;;;;;5049371;28;20070;-70
2022/08/24 08:08:56;;;;;;;13.10;7.13;;;26.90;99.90;;;;;;5050892;28;20029;-71
2022/08/24 08:11:22;;;;;;;11.93;7.05;;;27.00;99.90;;;;;;5051816;28;20032;-71
2022/08/24 08:13:48;;;;;;;16.25;8.35;;;27.00;99.90;;;;;;5069008;28;20087;-71
2022/08/24 08:16:14;;;;;;;10.45;6.20;;;26.70;99.90;;;;;;5052525;28;20033;-71
2022/08/24 08:18:40;;;;;;;15.98;7.65;;;26.70;99.90;;;;;;5053734;28;20037;-70
2022/08/24 08:24:13;;;;;;;12.52;7.25;;;26.40;99.90;;;;;;5052626;28;20047;-71
2022/08/24 08:24:15;;;;;;;13.63;6.13;;;26.30;99.90;;;;;;5047763;28;20036;-72
2022/08/24 08:26:43;;;;;;;13.70;4.95;;;26.50;99.90;;;;;;5048576;28;20025;-70
2022/08/24 08:29:15;;;;;;;6.72;3.67;;;26.50;99.90;;;;;;5056833;28;20079;-71
2022/08/24 08:31:41;;;;;;;9.57;4.18;;;26.50;99.90;;;;;;5062955;28;20495;-71
2022/08/24 08:34:08;;;;;;;10.95;4.00;;;26.50;99.90;;;;;;5051699;28;20074;-73
2022/08/24 08:36:39;;;;;;;6.50;3.78;;;26.80;99.90;;;;;;5049792;28;20424;-71
2022/08/24 08:39:11;;;;;;;7.35;4.03;;;27.30;99.90;;;;;;5052624;28;20036;-70
2022/08/24 08:41:51;;;;;;;6.25;3.53;;;27.20;99.90;;;;;;5052739;28;20104;-71
2022/08/24 08:44:44;;;;;;;10.68;3.65;;;27.10;99.90;;;;;;5036593;28;20133;-72
2022/08/24 08:47:33;;;;;;;9.35;3.55;;;27.00;99.90;;;;;;5045935;28;20033;-71
2022/08/24 08:50:06;;;;;;;13.43;4.20;;;27.10;99.90;;;;;;5051623;28;20074;-71
2022/08/24 08:53:12;;;;;;;10.80;4.70;;;27.60;99.90;;;;;;5051898;28;20057;-71
2022/08/24 08:55:47;;;;;;;8.43;3.83;;;27.50;99.90;;;;;;5051207;28;20028;-71
2022/08/24 08:58:35;;;;;;;9.90;4.25;;;27.50;99.90;;;;;;5051224;28;20041;-71
2022/08/24 09:01:38;;;;;;;14.48;4.80;;;27.50;99.90;;;;;;5052983;28;20124;-70
2022/08/24 09:04:19;;;;;;;13.88;4.50;;;27.20;99.90;;;;;;5051687;28;20017;-70
2022/08/24 09:07:29;;;;;;;12.45;3.92;;;27.20;99.90;;;;;;5049441;28;20033;-70
2022/08/24 09:10:30;;;;;;;11.07;3.53;;;27.80;99.90;;;;;;5037638;28;20389;-71
2022/08/24 09:13:30;;;;;;;11.70;4.28;;;27.50;99.90;;;;;;5045878;28;20082;-70
2022/08/24 09:16:24;;;;;;;6.93;3.10;;;27.70;99.90;;;;;;5067730;28;20021;-70
2022/08/24 09:19:13;;;;;;;6.03;3.05;;;27.90;99.90;;;;;;5050590;28;20041;-71
2022/08/24 09:22:02;;;;;;;5.28;3.28;;;27.90;99.90;;;;;;5035028;28;20029;-70
2022/08/24 09:24:52;;;;;;;5.95;3.90;;;28.50;99.90;;;;;;5067742;28;20025;-70
2022/08/24 09:28:04;;;;;;;8.70;4.07;;;28.30;99.90;;;;;;5064385;28;20030;-71
2022/08/24 09:30:52;;;;;;;11.63;3.90;;;28.80;99.90;;;;;;5041444;28;20094;-70
2022/08/24 09:33:26;;;;;;;13.10;5.35;;;28.70;99.90;;;;;;5049311;28;20470;-70
2022/08/24 09:36:07;;;;;;;19.08;6.70;;;28.50;99.90;;;;;;5052121;28;20078;-70
2022/08/24 09:38:37;;;;;;;;;;;28.20;99.90;;;;;;5053558;28;20090;-70
2022/08/24 09:41:17;;;;;;;17.08;6.57;;;27.80;99.90;;;;;;5050508;28;19904;-70
2022/08/24 09:44:16;;;;;;;7.45;4.22;;;27.90;99.90;;;;;;5042074;28;20027;-74
2022/08/24 09:46:57;;;;;;;20.05;4.80;;;27.90;99.90;;;;;;5038845;28;20027;-70
2022/08/24 09:49:42;;;;;;;9.02;5.03;;;28.30;99.90;;;;;;5049584;28;20039;-70
2022/08/24 09:52:28;;;;;;;9.40;5.05;;;28.50;99.90;;;;;;5050701;28;20060;-70
2022/08/24 09:55:31;;;;;;;12.23;5.43;;;28.90;99.90;;;;;;5051516;28;20025;-71
2022/08/24 09:58:30;;;;;;;15.52;5.65;;;29.10;99.90;;;;;;5042867;28;20037;-70
2022/08/24 10:01:38;;;;;;;12.82;4.68;;;28.30;99.90;;;;;;5051963;28;20025;-70
2022/08/24 10:04:22;;;;;;;11.88;4.78;;;27.90;99.90;;;;;;5041097;28;20032;-70
2022/08/24 10:07:00;;;;;;;12.68;5.28;;;28.30;99.90;;;;;;5051344;28;20021;-70
2022/08/24 10:09:26;;;;;;;17.38;5.68;;;28.50;99.90;;;;;;5049356;28;20044;-70
2022/08/24 10:11:58;;;;;;;10.75;3.70;;;28.10;99.90;;;;;;5051708;28;20025;-72
2022/08/24 10:14:40;;;;;;;14.30;4.22;;;28.60;99.90;;;;;;5046479;28;20036;-70
2022/08/24 10:17:42;;;;;;;9.30;4.13;;;28.40;99.90;;;;;;5051464;28;20397;-72
2022/08/24 10:20:33;;;;;;;14.10;3.67;;;28.60;99.90;;;;;;5043944;28;20087;-70
2022/08/24 10:23:30;;;;;;;6.97;3.33;;;28.10;99.90;;;;;;5046069;28;20017;-70
2022/08/24 10:26:07;;;;;;;8.88;3.20;;;28.40;99.90;;;;;;5049076;28;20102;-70
2022/08/24 10:28:56;;;;;;;6.60;3.55;;;28.90;99.90;;;;;;5051727;28;20413;-72
2022/08/24 10:32:03;;;;;;;6.15;3.10;;;28.80;99.90;;;;;;5013408;28;20369;-70
2022/08/24 10:34:40;;;;;;;8.38;2.40;;;29.60;99.90;;;;;;5015855;28;20124;-71
2022/08/24 10:37:40;;;;;;;8.55;2.60;;;29.90;99.90;;;;;;5055431;28;20052;-70
2022/08/24 10:40:36;;;;;;;10.93;2.47;;;30.10;99.90;;;;;;5059531;28;20033;-70
2022/08/24 10:46:30;;;;;;;10.48;2.05;;;30.90;99.20;;;;;;5054464;28;20029;-71
2022/08/24 10:49:23;;;;;;;10.45;2.67;;;31.30;99.00;;;;;;5023004;28;20087;-71
2022/08/24 10:52:01;;;;;;;4.68;1.83;;;30.70;98.50;;;;;;5043369;28;20043;-70
2022/08/24 10:54:31;;;;;;;8.40;2.67;;;30.80;98.80;;;;;;5054490;28;20128;-70
2022/08/24 10:57:11;;;;;;;7.20;2.15;;;30.60;99.50;;;;;;5055204;28;20043;-70
2022/08/24 11:00:11;;;;;;;6.68;2.80;;;30.90;99.00;;;;;;5055128;28;20037;-70
2022/08/24 11:02:39;;;;;;;9.98;2.33;;;30.70;98.50;;;;;;5055179;28;20033;-70
2022/08/24 11:05:26;;;;;;;7.60;1.90;;;31.00;98.90;;;;;;5055065;28;20021;-70
2022/08/24 11:07:59;;;;;;;6.80;1.98;;;30.80;98.80;;;;;;5066448;28;20033;-70
2022/08/24 11:10:31;;;;;;;8.55;2.15;;;31.00;98.10;;;;;;5055182;28;20029;-70
2022/08/24 11:13:16;;;;;;;4.10;2.35;;;31.20;98.60;;;;;;5053686;28;20025;-70
2022/08/24 11:16:02;;;;;;;5.05;2.20;;;31.30;98.20;;;;;;5052470;28;20079;-70
2022/08/24 11:18:50;;;;;;;6.22;2.08;;;30.90;98.30;;;;;;5055019;28;20041;-70
2022/08/24 11:21:46;;;;;;;2.78;1.90;;;31.10;98.50;;;;;;5049573;28;20043;-70
2022/08/24 11:24:12;;;;;;;4.93;1.70;;;31.60;96.80;;;;;;5053949;28;20103;-70
2022/08/24 11:27:00;;;;;;;6.03;2.20;;;31.90;97.50;;;;;;5055225;28;20109;-72
2022/08/24 11:29:49;;;;;;;5.43;1.92;;;31.60;96.80;;;;;;5052991;28;20469;-71
2022/08/24 11:32:50;;;;;;;3.33;2.08;;;31.70;96.40;;;;;;5054364;28;20086;-71
2022/08/24 11:35:22;;;;;;;6.55;2.55;;;31.70;96.80;;;;;;5051050;28;20059;-70
2022/08/24 11:37:50;;;;;;;5.75;1.50;;;32.10;95.40;;;;;;5053491;28;20451;-71
2022/08/24 11:40:18;;;;;;;5.03;1.80;;;32.80;95.80;;;;;;5054491;28;20353;-71
2022/08/24 11:43:13;;;;;;;5.80;2.22;;;33.10;94.80;;;;;;5053699;28;20067;-74
2022/08/24 11:46:08;;;;;;;6.03;2.67;;;33.10;94.70;;;;;;4997571;28;20446;-70
2022/08/24 11:49:00;;;;;;;4.03;1.90;;;32.90;94.70;;;;;;5056871;28;20029;-70
2022/08/24 11:51:40;;;;;;;11.52;3.25;;;33.30;95.20;;;;;;5052337;28;20039;-71
2022/08/24 11:54:18;;;;;;;3.35;2.00;;;34.10;94.30;;;;;;5069441;28;20033;-72
2022/08/24 11:57:08;;;;;;;7.55;2.63;;;33.80;94.50;;;;;;5053889;28;20063;-70
2022/08/24 11:59:55;;;;;;;9.80;2.60;;;33.50;94.10;;;;;;5053366;28;20737;-70
2022/08/24 12:02:31;;;;;;;8.98;2.58;;;33.70;93.90;;;;;;5043921;28;20469;-71
2022/08/24 12:05:19;;;;;;;11.10;2.22;;;34.10;93.50;;;;;;5052927;28;20029;-71
2022/08/24 12:08:04;;;;;;;7.80;2.60;;;34.60;93.40;;;;;;5054358;28;20110;-70
2022/08/24 12:10:36;;;;;;;7.10;2.47;;;34.30;93.30;;;;;;5053140;28;20611;-71
2022/08/24 12:13:19;;;;;;;8.45;2.42;;;34.10;93.10;;;;;;5054604;28;20629;-70
2022/08/24 12:15:59;;;;;;;6.18;2.13;;;34.80;92.90;;;;;;5054502;28;20538;-71
2022/08/24 12:18:34;;;;;;;5.93;1.95;;;34.80;92.30;;;;;;5054921;28;20059;-71
2022/08/24 12:21:01;;;;;;;7.93;2.30;;;34.50;92.60;;;;;;5054372;28;20040;-71
2022/08/24 12:23:40;;;;;;;5.00;2.38;;;33.60;93.40;;;;;;5053029;28;20020;-71
2022/08/24 12:26:33;;;;;;;3.35;2.13;;;33.30;93.20;;;;;;5054590;28;20381;-70
2022/08/24 12:29:11;;;;;;;5.50;2.10;;;33.50;92.10;;;;;;5054408;28;20036;-71
2022/08/24 12:31:39;;;;;;;6.82;1.80;;;33.50;93.30;;;;;;5054574;28;20531;-72
2022/08/24 12:34:31;;;;;;;7.70;2.08;;;34.30;93.00;;;;;;5044571;28;20013;-73
2022/08/24 12:37:02;;;;;;;;;;;35.20;91.30;;;;;;5054062;28;20104;-72
2022/08/24 12:39:36;;;;;;;8.18;2.22;;;34.50;91.50;;;;;;5052681;28;19952;-70
2022/08/24 12:42:11;;;;;;;10.10;2.72;;;35.10;91.20;;;;;;5065175;28;20031;-74
2022/08/24 12:44:49;;;;;;;3.45;2.25;;;36.00;90.60;;;;;;5049425;28;20033;-71
2022/08/24 12:47:36;;;;;;;5.90;2.35;;;35.40;90.10;;;;;;5065860;28;20048;-70
2022/08/24 12:50:31;;;;;;;5.13;2.03;;;36.00;89.40;;;;;;5046353;28;20469;-71
2022/08/24 12:53:15;;;;;;;7.60;1.75;;;36.30;88.20;;;;;;5046916;28;20116;-70
2022/08/24 12:56:10;;;;;;;5.68;1.70;;;36.50;89.50;;;;;;5050219;28;20033;-76
2022/08/24 12:59:06;;;;;;;4.05;1.63;;;37.60;87.70;;;;;;5053090;28;20041;-71
2022/08/24 13:01:44;;;;;;;7.90;1.85;;;38.40;86.30;;;;;;5046519;28;20749;-71
2022/08/24 13:04:47;;;;;;;3.63;1.70;;;38.70;85.60;;;;;;5053672;28;20111;-71
2022/08/24 13:07:39;;;;;;;6.15;1.42;;;40.20;83.80;;;;;;5050852;28;20036;-71
2022/08/24 13:10:31;;;;;;;4.75;1.10;;;39.50;81.30;;;;;;5051797;28;20029;-71
2022/08/24 13:13:10;;;;;;;8.07;1.10;;;39.30;79.90;;;;;;5040408;28;20432;-71
2022/08/24 13:15:36;;;;;;;6.50;1.50;;;39.00;77.40;;;;;;5051908;28;20096;-71
2022/08/24 13:18:08;;;;;;;5.18;1.73;;;39.30;78.50;;;;;;5053342;28;20029;-71
2022/08/24 13:20:37;;;;;;;6.90;1.40;;;39.50;77.20;;;;;;5053161;28;20025;-71
2022/08/24 13:23:18;;;;;;;5.07;1.58;;;38.90;77.20;;;;;;5052213;28;20017;-71
2022/08/24 13:25:50;;;;;;;2.50;1.13;;;38.50;77.70;;;;;;5053223;28;20033;-71
2022/08/24 13:28:21;;;;;;;6.53;1.20;;;38.40;77.20;;;;;;5041227;28;20028;-71